createdAt,value
2022-10-28T00:02:12.448Z,12.13
2022-10-28T00:05:02.281Z,12.23
2022-10-28T00:07:51.595Z,12.65
2022-10-28T00:10:40.736Z,10.60
2022-10-28T00:13:31.649Z,10.57
2022-10-28T00:16:23.629Z,9.95
2022-10-28T00:19:15.550Z,9.93
2022-10-28T00:22:04.320Z,9.68
2022-10-28T00:24:53.585Z,9.35
2022-10-28T00:27:45.069Z,8.68
2022-10-28T00:30:34.011Z,9.07
2022-10-28T00:33:23.335Z,14.25
2022-10-28T00:36:21.212Z,8.25
2022-10-28T00:39:16.471Z,8.63
2022-10-28T00:42:08.270Z,9.23
2022-10-28T00:45:06.749Z,8.90
2022-10-28T00:47:56.624Z,8.70
2022-10-28T00:50:53.986Z,10.38
2022-10-28T00:53:45.100Z,9.18
2022-10-28T00:56:38.317Z,9.70
2022-10-28T00:59:29.699Z,10.07
2022-10-28T01:02:19.756Z,9.40
2022-10-28T01:05:09.586Z,9.50
2022-10-28T01:08:03.630Z,8.88
2022-10-28T01:11:14.004Z,8.85
2022-10-28T01:14:19.212Z,9.13
2022-10-28T01:17:30.304Z,9.00
2022-10-28T01:20:34.937Z,10.52
2022-10-28T01:23:44.787Z,10.23
2022-10-28T01:26:33.667Z,10.68
2022-10-28T01:29:31.654Z,11.07
2022-10-28T01:32:52.301Z,10.20
2022-10-28T01:35:56.711Z,11.48
2022-10-28T01:39:07.949Z,12.80
2022-10-28T01:42:28.588Z,12.50
2022-10-28T01:45:28.835Z,13.52
2022-10-28T01:48:23.691Z,13.60
2022-10-28T01:51:22.964Z,13.10
2022-10-28T01:54:14.137Z,14.57
2022-10-28T01:57:06.146Z,15.45
2022-10-28T01:59:55.315Z,14.82
2022-10-28T02:02:46.361Z,13.73
2022-10-28T02:05:41.131Z,14.20
2022-10-28T02:09:05.427Z,13.82
2022-10-28T02:12:18.062Z,12.63
2022-10-28T02:15:39.159Z,12.57
2022-10-28T02:18:41.730Z,13.00
2022-10-28T02:22:11.878Z,12.40
2022-10-28T02:25:22.793Z,13.13
2022-10-28T02:28:17.230Z,13.02
2022-10-28T02:31:17.626Z,12.98
2022-10-28T02:34:11.823Z,13.52
2022-10-28T02:37:03.175Z,12.27
2022-10-28T02:39:56.341Z,11.57
2022-10-28T02:42:52.926Z,10.27
2022-10-28T02:45:48.752Z,10.10
2022-10-28T02:48:49.830Z,9.80
2022-10-28T02:51:44.704Z,9.65
2022-10-28T02:54:38.291Z,10.25
2022-10-28T02:57:31.370Z,10.88
2022-10-28T03:00:26.314Z,10.68
2022-10-28T03:03:15.896Z,11.30
2022-10-28T03:06:05.808Z,10.68
2022-10-28T03:08:54.971Z,11.30
2022-10-28T03:11:43.872Z,12.00
2022-10-28T03:14:33.239Z,11.75
2022-10-28T03:17:22.860Z,13.07
2022-10-28T03:20:12.684Z,14.45
2022-10-28T03:23:02.516Z,14.25
2022-10-28T03:25:53.641Z,14.07
2022-10-28T03:28:45.760Z,15.07
2022-10-28T03:31:34.762Z,16.42
2022-10-28T03:34:24.384Z,17.63
2022-10-28T03:37:13.683Z,17.77
2022-10-28T03:40:05.816Z,20.63
2022-10-28T03:42:55.018Z,19.85
2022-10-28T03:45:45.089Z,18.95
2022-10-28T03:48:36.527Z,18.48
2022-10-28T03:51:25.478Z,19.13
2022-10-28T03:54:15.525Z,20.27
2022-10-28T03:57:04.810Z,20.55
2022-10-28T03:59:57.948Z,19.50
2022-10-28T04:02:54.736Z,21.52
2022-10-28T04:05:45.006Z,20.45
2022-10-28T04:08:34.647Z,21.20
2022-10-28T04:11:24.261Z,22.23
2022-10-28T04:14:13.789Z,23.35
2022-10-28T04:17:03.516Z,24.58
2022-10-28T04:19:52.744Z,23.60
2022-10-28T04:22:41.875Z,23.90
2022-10-28T04:25:30.904Z,23.50
2022-10-28T04:28:20.293Z,23.02
2022-10-28T04:31:10.998Z,24.77
2022-10-28T04:34:00.118Z,21.73
2022-10-28T04:36:48.977Z,20.13
2022-10-28T04:39:41.361Z,21.48
2022-10-28T04:42:30.575Z,22.85
2022-10-28T04:45:19.696Z,23.38
2022-10-28T04:48:12.808Z,23.95
2022-10-28T04:51:02.083Z,21.92
2022-10-28T04:53:50.684Z,20.73
2022-10-28T04:56:39.681Z,20.60
2022-10-28T04:59:31.345Z,20.95
2022-10-28T05:02:20.429Z,18.30
2022-10-28T05:05:10.087Z,20.60
2022-10-28T05:07:59.175Z,18.83
2022-10-28T05:10:51.136Z,20.45
2022-10-28T05:13:40.214Z,16.10
2022-10-28T05:16:29.242Z,16.08
2022-10-28T05:19:18.336Z,12.80
2022-10-28T05:22:07.720Z,11.75
2022-10-28T05:24:57.199Z,9.93
2022-10-28T05:27:49.406Z,10.15
2022-10-28T05:30:38.960Z,9.07
2022-10-28T05:33:30.458Z,10.82
2022-10-28T05:36:37.633Z,7.25
2022-10-28T05:39:26.781Z,12.25
2022-10-28T05:42:15.909Z,5.53
2022-10-28T05:45:04.928Z,4.45
2022-10-28T05:47:55.868Z,5.22
2022-10-28T05:50:45.271Z,4.95
2022-10-28T05:53:33.755Z,6.32
2022-10-28T05:56:23.346Z,5.93
2022-10-28T05:59:13.095Z,6.03
2022-10-28T06:02:02.260Z,5.95
2022-10-28T06:04:51.349Z,5.57
2022-10-28T06:07:42.242Z,4.88
2022-10-28T06:10:36.824Z,5.53
2022-10-28T06:13:24.542Z,6.00
2022-10-28T06:16:13.363Z,5.90
2022-10-28T06:19:02.883Z,5.90
2022-10-28T06:21:58.112Z,5.50
2022-10-28T06:24:47.220Z,5.70
2022-10-28T06:27:36.591Z,6.45
2022-10-28T06:30:27.057Z,7.35
2022-10-28T06:33:15.954Z,7.03
2022-10-28T06:36:08.355Z,6.38
2022-10-28T06:38:57.392Z,6.90
2022-10-28T06:41:50.073Z,8.88
2022-10-28T06:44:45.380Z,9.40
2022-10-28T06:47:40.593Z,12.07
2022-10-28T06:50:31.507Z,12.32
2022-10-28T06:53:22.349Z,12.73
2022-10-28T06:56:12.503Z,12.10
2022-10-28T06:59:01.963Z,12.13
2022-10-28T07:01:51.542Z,13.32
2022-10-28T07:04:43.691Z,15.82
2022-10-28T07:07:43.700Z,17.00
2022-10-28T07:10:33.875Z,18.63
2022-10-28T07:13:23.033Z,20.17
2022-10-28T07:16:12.098Z,21.75
2022-10-28T07:19:00.979Z,21.35
2022-10-28T07:21:51.890Z,19.13
2022-10-28T07:24:43.622Z,20.92
2022-10-28T07:27:33.241Z,20.92
2022-10-28T07:30:22.711Z,20.65
2022-10-28T07:33:12.017Z,20.17
2022-10-28T07:36:02.478Z,20.73
2022-10-28T07:38:54.615Z,20.85
2022-10-28T07:41:43.465Z,21.45
2022-10-28T07:44:32.367Z,24.35
2022-10-28T07:47:25.731Z,22.73
2022-10-28T07:50:15.106Z,23.02
2022-10-28T07:53:10.624Z,23.25
2022-10-28T07:56:04.481Z,23.80
2022-10-28T07:58:53.722Z,25.65
2022-10-28T08:01:43.193Z,26.75
2022-10-28T08:04:33.317Z,23.25
2022-10-28T08:07:24.781Z,23.67
2022-10-28T08:10:15.441Z,25.70
2022-10-28T08:13:05.246Z,27.83
2022-10-28T08:15:55.564Z,25.92
2022-10-28T08:18:44.912Z,24.67
2022-10-28T08:21:34.131Z,22.45
2022-10-28T08:24:23.421Z,18.48
2022-10-28T08:27:12.311Z,18.20
2022-10-28T08:30:01.291Z,17.25
2022-10-28T08:32:58.856Z,16.45
2022-10-28T08:35:53.740Z,16.60
2022-10-28T08:38:46.056Z,15.93
2022-10-28T08:41:47.160Z,19.83
2022-10-28T08:44:42.148Z,17.00
2022-10-28T08:47:54.823Z,16.92
2022-10-28T08:50:52.832Z,16.02
2022-10-28T08:53:59.815Z,16.58
2022-10-28T08:56:49.436Z,17.85
2022-10-28T08:59:40.682Z,20.45
2022-10-28T09:02:35.298Z,17.35
2022-10-28T09:05:27.391Z,16.75
2022-10-28T09:08:24.875Z,17.58
2022-10-28T09:11:37.107Z,18.10
2022-10-28T09:14:31.979Z,19.77
2022-10-28T09:17:26.841Z,33.78
2022-10-28T09:20:46.473Z,28.52
2022-10-28T09:23:51.274Z,21.35
2022-10-28T09:26:54.490Z,22.02
2022-10-28T09:30:06.678Z,22.58
2022-10-28T09:33:07.678Z,22.67
2022-10-28T09:35:58.443Z,23.27
2022-10-28T09:38:48.102Z,23.35
2022-10-28T09:41:40.109Z,21.75
2022-10-28T09:44:35.392Z,21.20
2022-10-28T09:47:39.400Z,22.85
2022-10-28T09:50:31.371Z,23.98
2022-10-28T09:53:59.352Z,24.90
2022-10-28T09:56:48.626Z,28.08
2022-10-28T09:59:38.598Z,23.25
2022-10-28T10:02:33.978Z,25.23
2022-10-28T10:05:24.419Z,22.30
2022-10-28T10:08:21.010Z,24.17
2022-10-28T10:11:46.838Z,23.42
2022-10-28T10:14:57.487Z,24.17
2022-10-28T10:17:49.300Z,29.73
2022-10-28T10:21:06.543Z,28.48
2022-10-28T10:23:57.110Z,25.00
2022-10-28T10:26:46.460Z,26.65
2022-10-28T10:29:37.421Z,28.98
2022-10-28T10:32:32.013Z,30.08
2022-10-28T10:35:36.489Z,28.48
2022-10-28T10:38:25.550Z,27.25
2022-10-28T10:41:35.341Z,28.67
2022-10-28T10:44:27.277Z,26.33
2022-10-28T10:47:20.917Z,26.67
2022-10-28T10:50:35.853Z,22.48
2022-10-28T10:53:26.722Z,25.42
2022-10-28T10:56:28.253Z,26.38
2022-10-28T10:59:27.246Z,34.75
2022-10-28T11:02:42.798Z,29.67
2022-10-28T11:05:37.945Z,29.17
2022-10-28T11:08:35.289Z,31.23
2022-10-28T11:11:25.591Z,30.23
2022-10-28T11:14:14.503Z,23.98
2022-10-28T11:17:25.810Z,24.73
2022-10-28T11:20:28.203Z,26.52
2022-10-28T11:23:36.139Z,23.83
2022-10-28T11:26:26.881Z,25.42
2022-10-28T11:29:19.401Z,23.40
2022-10-28T11:32:48.876Z,25.30
2022-10-28T11:36:17.312Z,25.70
2022-10-28T11:39:40.660Z,27.67
2022-10-28T11:43:08.247Z,24.75
2022-10-28T11:46:12.372Z,23.98
2022-10-28T11:49:22.421Z,24.70
2022-10-28T11:52:20.629Z,28.23
2022-10-28T11:55:24.905Z,26.95
2022-10-28T11:58:41.931Z,23.20
2022-10-28T12:01:52.737Z,20.90
2022-10-28T12:05:10.692Z,22.13
2022-10-28T12:08:15.095Z,19.20
2022-10-28T12:11:25.798Z,18.52
2022-10-28T12:14:39.788Z,18.88
2022-10-28T12:18:16.578Z,18.10
2022-10-28T12:21:26.119Z,21.42
2022-10-28T12:24:20.044Z,20.67
2022-10-28T12:27:29.531Z,22.00
2022-10-28T12:30:51.558Z,20.10
2022-10-28T12:33:50.775Z,18.98
2022-10-28T12:36:56.358Z,17.58
2022-10-28T12:40:14.570Z,17.98
2022-10-28T12:43:25.140Z,18.27
2022-10-28T12:46:50.366Z,17.90
2022-10-28T12:49:55.257Z,16.77
2022-10-28T12:53:07.295Z,20.13
2022-10-28T12:56:04.755Z,16.55
2022-10-28T12:58:53.864Z,15.00
2022-10-28T13:01:46.494Z,13.88
2022-10-28T13:04:38.541Z,16.05
2022-10-28T13:08:01.831Z,9.77
2022-10-28T13:10:59.114Z,9.27
2022-10-28T13:14:02.523Z,8.20
2022-10-28T13:17:18.876Z,7.97
2022-10-28T13:20:25.855Z,6.50
2022-10-28T13:23:41.592Z,6.90
2022-10-28T13:26:36.575Z,5.90
2022-10-28T13:29:31.724Z,5.65
2022-10-28T13:32:35.599Z,6.57
2022-10-28T13:35:29.347Z,6.53
2022-10-28T13:38:23.036Z,7.28
2022-10-28T13:41:27.383Z,7.40
2022-10-28T13:44:28.654Z,8.60
2022-10-28T13:47:36.240Z,7.07
2022-10-28T13:50:34.728Z,6.25
2022-10-28T13:53:26.600Z,8.13
2022-10-28T13:56:46.840Z,7.05
2022-10-28T13:59:54.300Z,7.13
2022-10-28T14:03:04.680Z,10.68
2022-10-28T14:05:57.785Z,6.30
2022-10-28T14:08:47.224Z,6.25
2022-10-28T14:11:36.348Z,6.05
2022-10-28T14:14:25.704Z,5.47
2022-10-28T14:17:29.049Z,5.53
2022-10-28T14:20:41.777Z,5.50
2022-10-28T14:23:30.494Z,4.95
2022-10-28T14:26:19.505Z,4.85
2022-10-28T14:29:29.621Z,4.85
2022-10-28T14:32:33.665Z,4.28
2022-10-28T14:35:32.313Z,4.22
2022-10-28T14:39:05.901Z,4.50
2022-10-28T14:42:02.059Z,4.40
2022-10-28T14:44:59.443Z,4.05
2022-10-28T14:48:03.861Z,4.47
2022-10-28T14:50:56.824Z,5.25
2022-10-28T14:53:47.070Z,4.97
2022-10-28T14:56:42.895Z,4.03
2022-10-28T14:59:38.344Z,4.38
2022-10-28T15:02:31.871Z,4.68
2022-10-28T15:05:24.314Z,5.05
2022-10-28T15:08:13.702Z,4.97
2022-10-28T15:11:05.999Z,4.63
2022-10-28T15:14:01.632Z,4.20
2022-10-28T15:16:51.141Z,4.22
2022-10-28T15:19:40.444Z,3.80
2022-10-28T15:22:35.064Z,4.07
2022-10-28T15:25:25.076Z,3.90
2022-10-28T15:28:14.982Z,3.72
2022-10-28T15:31:04.232Z,4.13
2022-10-28T15:33:53.624Z,3.95
2022-10-28T15:36:50.164Z,4.30
2022-10-28T15:39:40.873Z,4.53
2022-10-28T15:42:41.884Z,4.70
2022-10-28T15:45:34.420Z,3.90
2022-10-28T15:48:28.686Z,4.50
2022-10-28T15:51:21.426Z,3.90
2022-10-28T15:54:20.403Z,3.80
2022-10-28T15:57:30.740Z,3.47
2022-10-28T16:00:24.570Z,4.28
2022-10-28T16:03:26.407Z,4.13
2022-10-28T16:06:31.843Z,4.20
2022-10-28T16:09:35.271Z,4.32
2022-10-28T16:12:25.734Z,3.90
2022-10-28T16:15:16.279Z,3.88
2022-10-28T16:18:05.292Z,3.92
2022-10-28T16:20:56.027Z,4.10
2022-10-28T16:23:45.352Z,4.32
2022-10-28T16:26:34.442Z,3.92
2022-10-28T16:29:23.247Z,3.92
2022-10-28T16:32:13.905Z,4.60
2022-10-28T16:35:02.677Z,4.50
2022-10-28T16:37:55.370Z,3.90
2022-10-28T16:40:51.418Z,4.32
2022-10-28T16:43:41.126Z,4.22
2022-10-28T16:46:31.966Z,3.88
2022-10-28T16:49:23.705Z,3.65
2022-10-28T16:52:20.971Z,3.30
2022-10-28T16:55:18.198Z,3.50
2022-10-28T16:58:07.739Z,4.28
2022-10-28T17:00:57.505Z,3.70
2022-10-28T17:03:46.901Z,3.63
2022-10-28T17:06:35.698Z,3.63
2022-10-28T17:09:25.403Z,3.35
2022-10-28T17:12:28.100Z,3.33
2022-10-28T17:15:17.319Z,3.78
2022-10-28T17:18:06.308Z,3.72
2022-10-28T17:21:02.937Z,3.90
2022-10-28T17:23:52.639Z,3.88
2022-10-28T17:26:41.596Z,4.13
2022-10-28T17:29:31.002Z,4.28
2022-10-28T17:32:19.803Z,3.58
2022-10-28T17:35:09.273Z,3.38
2022-10-28T17:37:58.524Z,3.30
2022-10-28T17:40:56.815Z,3.03
2022-10-28T17:43:45.973Z,2.63
2022-10-28T17:46:35.107Z,3.05
2022-10-28T17:49:24.396Z,3.45
2022-10-28T17:52:14.121Z,3.63
2022-10-28T17:55:04.066Z,4.32
2022-10-28T17:57:53.499Z,4.60
2022-10-28T18:00:43.014Z,5.05
2022-10-28T18:03:35.618Z,4.90
2022-10-28T18:06:29.549Z,5.15
2022-10-28T18:09:18.277Z,6.03
2022-10-28T18:12:07.635Z,4.93
2022-10-28T18:14:58.663Z,4.88
2022-10-28T18:17:52.129Z,5.15
2022-10-28T18:20:41.271Z,4.78
2022-10-28T18:23:31.789Z,3.80
2022-10-28T18:26:23.725Z,4.45
2022-10-28T18:29:14.136Z,4.35
2022-10-28T18:32:05.529Z,3.60
2022-10-28T18:34:54.870Z,3.88
2022-10-28T18:37:44.637Z,3.97
2022-10-28T18:40:33.866Z,3.85
2022-10-28T18:43:24.063Z,3.88
2022-10-28T18:46:14.304Z,4.20
2022-10-28T18:49:03.749Z,4.00
2022-10-28T18:52:11.970Z,4.22
2022-10-28T18:55:02.035Z,4.05
2022-10-28T18:57:52.131Z,3.90
2022-10-28T19:00:41.333Z,3.78
2022-10-28T19:03:30.171Z,3.95
2022-10-28T19:06:22.470Z,3.88
2022-10-28T19:09:11.637Z,3.53
2022-10-28T19:12:00.898Z,3.97
2022-10-28T19:14:50.215Z,3.72
2022-10-28T19:17:42.525Z,3.47
2022-10-28T19:20:32.095Z,3.50
2022-10-28T19:23:21.397Z,3.83
2022-10-28T19:26:10.885Z,4.03
2022-10-28T19:29:00.219Z,3.40
2022-10-28T19:31:49.042Z,3.38
2022-10-28T19:34:41.028Z,3.55
2022-10-28T19:37:30.877Z,3.15
2022-10-28T19:40:20.464Z,3.83
2022-10-28T19:43:10.160Z,3.47
2022-10-28T19:46:15.319Z,3.55
2022-10-28T19:49:07.541Z,3.80
2022-10-28T19:51:56.900Z,3.85
2022-10-28T19:54:48.707Z,3.97
2022-10-28T19:57:41.356Z,3.70
2022-10-28T20:00:30.365Z,3.63
2022-10-28T20:03:21.649Z,3.70
2022-10-28T20:06:13.011Z,4.20
2022-10-28T20:09:04.426Z,4.20
2022-10-28T20:11:53.519Z,4.97
2022-10-28T20:14:43.915Z,4.82
2022-10-28T20:17:33.262Z,5.20
2022-10-28T20:20:22.424Z,6.03
2022-10-28T20:23:11.911Z,5.72
2022-10-28T20:26:01.448Z,5.95
2022-10-28T20:28:51.212Z,5.85
2022-10-28T20:31:44.328Z,5.38
2022-10-28T20:34:36.049Z,5.90
2022-10-28T20:37:24.919Z,4.72
2022-10-28T20:40:13.970Z,5.03
2022-10-28T20:43:03.166Z,5.03
2022-10-28T20:46:18.929Z,4.53
2022-10-28T20:49:14.817Z,4.10
2022-10-28T20:52:07.089Z,4.30
2022-10-28T20:54:55.774Z,4.05
2022-10-28T20:57:45.369Z,3.83
2022-10-28T21:00:34.207Z,3.75
2022-10-28T21:03:23.785Z,3.53
2022-10-28T21:09:07.983Z,3.80
2022-10-28T21:11:57.241Z,3.80
2022-10-28T21:14:47.175Z,3.63
2022-10-28T21:17:36.278Z,3.28
2022-10-28T21:20:25.290Z,3.63
2022-10-28T21:23:17.405Z,3.33
2022-10-28T21:26:09.796Z,2.97
2022-10-28T21:28:58.559Z,3.40
2022-10-28T21:31:48.247Z,2.80
2022-10-28T21:34:37.435Z,2.70
2022-10-28T21:37:26.454Z,2.40
2022-10-28T21:40:16.350Z,2.50
2022-10-28T21:43:05.584Z,2.80
2022-10-28T21:45:54.609Z,2.50
2022-10-28T21:48:45.242Z,2.95
2022-10-28T21:51:35.078Z,2.42
2022-10-28T21:54:24.546Z,2.33
2022-10-28T21:57:14.538Z,2.60
2022-10-28T22:00:06.887Z,3.28
2022-10-28T22:03:21.017Z,3.55
2022-10-28T22:06:11.736Z,2.92
2022-10-28T22:09:02.268Z,2.63
2022-10-28T22:11:51.299Z,2.60
2022-10-28T22:14:44.543Z,2.67
2022-10-28T22:17:34.981Z,2.50
2022-10-28T22:23:14.895Z,2.50
2022-10-28T22:26:07.431Z,3.03
2022-10-28T22:28:57.682Z,2.42
2022-10-28T22:31:48.143Z,2.42
2022-10-28T22:34:40.191Z,2.40
2022-10-28T22:37:29.378Z,2.90
2022-10-28T22:40:18.616Z,2.88
2022-10-28T22:43:07.283Z,3.10
2022-10-28T22:46:01.563Z,3.03
2022-10-28T22:48:51.064Z,2.60
2022-10-28T22:51:40.901Z,2.60
2022-10-28T22:54:30.323Z,2.80
2022-10-28T22:57:19.498Z,2.85
2022-10-28T23:00:09.438Z,2.83
2022-10-28T23:02:59.593Z,2.72
2022-10-28T23:05:50.661Z,2.53
2022-10-28T23:08:41.531Z,2.28
2022-10-28T23:11:31.087Z,2.10
2022-10-28T23:14:23.978Z,2.47
2022-10-28T23:17:12.946Z,2.20
2022-10-28T23:20:02.187Z,2.30
2022-10-28T23:22:51.605Z,2.60
2022-10-28T23:25:41.054Z,2.47
2022-10-28T23:28:30.740Z,1.70
2022-10-28T23:31:20.621Z,2.45
2022-10-28T23:34:10.123Z,2.00
2022-10-28T23:36:59.019Z,2.20
2022-10-28T23:39:53.104Z,2.30
2022-10-28T23:42:41.936Z,2.08
2022-10-28T23:45:30.704Z,2.35
2022-10-28T23:48:20.393Z,2.00
2022-10-28T23:51:11.066Z,1.98
2022-10-28T23:54:00.902Z,2.33
2022-10-28T23:56:50.244Z,2.58
2022-10-28T23:59:39.315Z,2.20
